Time;durP1;ratioP1;P1;durP2;ratioP2;P2;SDS_P1;SDS_P2;PMS_P1;PMS_P2;Temp;Humidity;BMP_temperature;BMP_pressure;BME280_temperature;BME280_humidity;BME280_pressure;Samples;Min_cycle;Max_cycle;Signal;HPM_P1;HPM_P2
2023/02/13 00:01:05;;;;;;;;;77.00;61.25;;;;;7.84;100.00;102714.41;4869450;29;45543;-82
2023/02/13 00:03:30;;;;;;;;;76.00;59.75;;;;;7.79;100.00;102710.56;4870805;29;45577;-82
2023/02/13 00:06:02;;;;;;;;;78.00;62.25;;;;;7.76;100.00;102713.06;4853830;29;46933;-81
2023/02/13 00:08:27;;;;;;;;;79.00;60.25;;;;;7.62;100.00;102696.38;4867939;29;45547;-80
2023/02/13 00:10:54;;;;;;;;;79.25;62.25;;;;;7.58;100.00;102699.69;4869905;29;45466;-81
2023/02/13 00:13:21;;;;;;;;;74.00;60.75;;;;;7.53;100.00;102702.03;4871660;29;45518;-81
2023/02/13 00:15:58;;;;;;;;;74.50;59.25;;;;;7.46;100.00;102702.53;4869936;29;47893;-82
2023/02/13 00:18:23;;;;;;;;;76.25;61.25;;;;;7.40;100.00;102712.75;4870632;29;44845;-83
2023/02/13 00:21:07;;;;;;;;;77.25;62.00;;;;;7.47;100.00;102704.34;4872045;29;45768;-82
2023/02/13 00:23:35;;;;;;;;;76.00;60.50;;;;;7.47;100.00;102708.72;4856660;29;44919;-84
2023/02/13 00:26:04;;;;;;;;;78.25;62.00;;;;;7.41;100.00;102702.25;4856031;29;48063;-82
2023/02/13 00:28:33;;;;;;;;;78.50;61.25;;;;;7.41;100.00;102704.91;4872418;29;45397;-82
2023/02/13 00:31:03;;;;;;;;;75.50;59.50;;;;;7.51;100.00;102705.44;4873082;29;45428;-81
2023/02/13 00:33:29;;;;;;;;;76.00;59.75;;;;;7.45;100.00;102699.78;4873124;29;45810;-81
2023/02/13 00:36:05;;;;;;;;;69.75;57.00;;;;;7.40;100.00;102684.53;4873894;29;46243;-81
2023/02/13 00:38:30;;;;;;;;;78.75;62.00;;;;;7.45;100.00;102705.06;4858220;29;45457;-81
2023/02/13 00:40:57;;;;;;;;;75.25;58.50;;;;;7.46;100.00;102704.28;4873416;29;45403;-81
2023/02/13 00:43:23;;;;;;;;;72.50;58.25;;;;;7.48;100.00;102705.28;4872904;29;45349;-82
2023/02/13 00:45:48;;;;;;;;;72.75;58.25;;;;;7.47;100.00;102711.38;4873405;29;46201;-84
2023/02/13 00:51:36;;;;;;;;;68.75;54.75;;;;;7.48;100.00;102705.28;4874410;29;45473;-81
2023/02/13 00:54:02;;;;;;;;;71.00;57.25;;;;;7.49;100.00;102707.06;4857658;29;45488;-80
2023/02/13 00:56:28;;;;;;;;;72.75;56.50;;;;;7.46;100.00;102702.53;4875170;29;45750;-81
2023/02/13 00:58:53;;;;;;;;;71.25;55.25;;;;;7.45;100.00;102708.63;4875192;29;45356;-80
2023/02/13 01:01:19;;;;;;;;;71.25;55.50;;;;;7.36;100.00;102695.78;4854857;29;45686;-82
2023/02/13 01:03:45;;;;;;;;;69.50;57.50;;;;;7.35;100.00;102698.31;4852533;29;44886;-80
2023/02/13 01:06:10;;;;;;;;;77.00;60.00;;;;;7.32;100.00;102699.06;4855695;29;47123;-81
2023/02/13 01:08:42;;;;;;;;;72.75;58.75;;;;;7.32;100.00;102693.78;4854192;29;45676;-82
2023/02/13 01:11:09;;;;;;;;;72.75;58.75;;;;;7.33;100.00;102695.63;4857033;29;45336;-81
2023/02/13 01:13:35;;;;;;;;;74.75;59.25;;;;;7.27;100.00;102695.25;4874217;29;45721;-81
2023/02/13 01:16:01;;;;;;;;;72.75;57.50;;;;;7.31;100.00;102691.97;4854572;29;46615;-82
2023/02/13 01:18:28;;;;;;;;;76.00;61.00;;;;;7.27;100.00;102691.66;4870808;29;45535;-81
2023/02/13 01:21:05;;;;;;;;;75.75;59.50;;;;;7.36;100.00;102690.47;4853086;29;45038;-81
2023/02/13 01:23:36;;;;;;;;;77.50;62.25;;;;;7.33;100.00;102685.03;4866118;29;45511;-81
2023/02/13 01:26:07;;;;;;;;;74.25;60.50;;;;;7.34;100.00;102685.94;4852764;29;46913;-80
2023/02/13 01:28:33;;;;;;;;;77.75;59.25;;;;;7.18;100.00;102673.53;4872219;29;45355;-83
2023/02/13 01:30:59;;;;;;;;;76.25;60.00;;;;;7.21;100.00;102685.22;4874240;29;45669;-82
2023/02/13 01:33:27;;;;;;;;;69.75;56.00;;;;;7.27;100.00;102686.38;4859009;29;45331;-82
2023/02/13 01:39:14;;;;;;;;;73.25;58.50;;;;;7.22;100.00;102683.47;4864069;29;45257;-81
2023/02/13 01:41:40;;;;;;;;;73.50;58.75;;;;;7.20;100.00;102677.19;4867306;29;45340;-82
2023/02/13 01:44:44;;;;;;;;;75.25;59.75;;;;;7.33;100.00;102685.03;4853497;29;45623;-82
2023/02/13 01:47:15;;;;;;;;;64.50;53.25;;;;;7.32;100.00;102690.22;4872698;29;45638;-82
2023/02/13 01:49:45;;;;;;;;;71.25;57.00;;;;;7.26;100.00;102682.81;4852366;29;45482;-82
2023/02/13 01:52:12;;;;;;;;;76.25;60.25;;;;;7.30;100.00;102689.22;4868030;29;45397;-81
2023/02/13 01:54:39;;;;;;;;;72.00;55.50;;;;;7.27;100.00;102692.59;4870772;29;44954;-80
2023/02/13 01:57:14;;;;;;;;;70.25;58.25;;;;;7.31;100.00;102689.31;4852457;29;47703;-82
2023/02/13 01:59:46;;;;;;;;;74.00;58.25;;;;;7.25;100.00;102686.31;4867450;29;45492;-84
2023/02/13 02:02:14;;;;;;;;;76.00;59.00;;;;;7.26;100.00;102690.75;4851099;29;45469;-82
2023/02/13 02:04:41;;;;;;;;;76.50;59.25;;;;;7.24;100.00;102688.84;4860441;29;45830;-81
2023/02/13 02:07:16;;;;;;;;;65.25;54.00;;;;;7.18;100.00;102689.41;4848290;29;47239;-81
2023/02/13 02:09:44;;;;;;;;;70.75;57.00;;;;;7.13;100.00;102697.06;4850350;29;45406;-82
2023/02/13 02:12:15;;;;;;;;;70.25;57.00;;;;;7.07;100.00;102693.13;4834314;29;45434;-81
2023/02/13 02:14:42;;;;;;;;;59.50;47.25;;;;;7.05;100.00;102676.25;4850628;29;45511;-81
2023/02/13 02:17:08;;;;;;;;;66.00;54.25;;;;;7.06;100.00;102688.69;4849970;29;45439;-82
2023/02/13 02:19:39;;;;;;;;;69.25;55.00;;;;;7.12;100.00;102691.69;4851272;29;45698;-81
2023/02/13 02:22:18;;;;;;;;;70.75;56.50;;;;;7.06;100.00;102694.88;4850478;29;45479;-83
2023/02/13 02:28:43;;;;;;;;;69.75;55.50;;;;;6.96;100.00;102690.75;4850086;29;45420;-82
2023/02/13 02:31:39;;;;;;;;;77.00;59.00;;;;;6.92;100.00;102691.41;4813266;29;45449;-82
2023/02/13 02:34:30;;;;;;;;;69.75;56.00;;;;;6.81;100.00;102679.28;4815495;29;45457;-82
2023/02/13 02:37:09;;;;;;;;;67.75;54.25;;;;;6.82;100.00;102689.00;4813915;29;45503;-81
2023/02/13 02:40:01;;;;;;;;;72.25;57.75;;;;;6.79;100.00;102672.97;4816413;29;45672;-82
2023/02/13 02:42:49;;;;;;;;;69.50;54.50;;;;;6.72;100.00;102686.63;4814677;29;45726;-83
2023/02/13 02:45:45;;;;;;;;;68.50;56.00;;;;;6.73;100.00;102676.16;4793205;29;44851;-82
2023/02/13 02:51:42;;;;;;;;;70.25;55.25;;;;;6.77;100.00;102678.16;4796264;29;45550;-81
2023/02/13 02:57:23;;;;;;;;;66.25;55.00;;;;;6.72;100.00;102676.06;4796549;29;45446;-81
2023/02/13 03:13:17;;;;;;;;;66.75;55.50;;;;;6.72;100.00;102671.66;4813641;29;45441;-81
2023/02/13 03:13:50;;;;;;;;;59.50;48.75;;;;;6.77;100.00;102682.56;4815161;29;45465;-80
2023/02/13 03:22:46;;;;;;;;;69.00;55.75;;;;;6.81;100.00;102687.22;4787841;29;45392;-82
2023/02/13 03:25:33;;;;;;;;;66.50;53.75;;;;;6.75;100.00;102687.75;4741700;30;46830;-82
2023/02/13 03:31:19;;;;;;;;;63.50;52.75;;;;;6.59;100.00;102677.06;4740960;30;45381;-81
2023/02/13 03:33:59;;;;;;;;;71.75;56.75;;;;;6.55;100.00;102668.00;4727642;30;45386;-81
2023/02/13 03:39:48;;;;;;;;;70.25;54.75;;;;;6.47;100.00;102668.38;4742565;30;45339;-81
2023/02/13 03:42:25;;;;;;;;;66.00;54.00;;;;;6.41;100.00;102690.94;4724714;30;45507;-81
2023/02/13 03:47:57;;;;;;;;;64.25;54.50;;;;;6.37;100.00;102678.34;4707404;30;45929;-80
2023/02/13 03:50:26;;;;;;;;;70.50;54.75;;;;;6.33;100.00;102670.16;4705822;30;45522;-81
2023/02/13 03:53:01;;;;;;;;;67.50;54.50;;;;;6.36;100.00;102680.91;4709490;30;44869;-82
2023/02/13 04:01:11;;;;;;;;;60.50;49.75;;;;;6.31;100.00;102671.78;4785999;29;45456;-81
2023/02/13 04:03:47;;;;;;;;;69.75;55.25;;;;;6.38;100.00;102679.25;4871269;29;45523;-81
2023/02/13 04:06:19;;;;;;;;;63.00;50.00;;;;;6.39;100.00;102665.25;4871819;29;45348;-82
2023/02/13 04:08:44;;;;;;;;;58.75;49.00;;;;;6.37;100.00;102678.34;4869330;29;45537;-82
2023/02/13 04:11:25;;;;;;;;;67.50;54.50;;;;;6.48;100.00;102673.72;4868628;28;45651;-82
2023/02/13 04:13:58;;;;;;;;;62.00;51.25;;;;;6.44;100.00;102673.44;4871194;29;45443;-80
2023/02/13 04:16:43;;;;;;;;;65.75;53.00;;;;;6.57;100.00;102678.69;4853446;29;45392;-80
2023/02/13 04:19:10;;;;;;;;;68.00;55.00;;;;;6.51;100.00;102676.56;4868407;29;47572;-83
2023/02/13 04:21:39;;;;;;;;;67.25;54.00;;;;;6.58;100.00;102678.78;4852806;29;45483;-81
2023/02/13 04:24:05;;;;;;;;;64.75;54.75;;;;;6.55;100.00;102681.22;4871961;29;44934;-81
2023/02/13 04:26:41;;;;;;;;;63.50;52.50;;;;;6.55;100.00;102670.66;4870083;29;45393;-82
2023/02/13 04:29:44;;;;;;;;;66.25;51.50;;;;;6.57;100.00;102682.22;4869520;29;45427;-82
2023/02/13 04:32:10;;;;;;;;;64.75;52.50;;;;;6.47;100.00;102689.50;4850964;29;45592;-82
2023/02/13 04:34:42;;;;;;;;;72.25;57.50;;;;;6.49;100.00;102685.22;4869608;29;44866;-82
2023/02/13 04:37:07;;;;;;;;;72.00;57.00;;;;;6.31;100.00;102672.69;4871366;29;45450;-82
2023/02/13 04:39:33;;;;;;;;;70.50;55.25;;;;;6.35;100.00;102687.00;4853165;29;47698;-82
2023/02/13 04:41:59;;;;;;;;;67.50;53.25;;;;;6.24;100.00;102664.28;4867826;29;45468;-82
2023/02/13 04:44:24;;;;;;;;;70.25;56.50;;;;;6.27;100.00;102683.88;4870299;29;45805;-82
2023/02/13 04:46:49;;;;;;;;;65.75;55.50;;;;;6.29;100.00;102681.34;4852958;29;45346;-81
2023/02/13 04:49:15;;;;;;;;;62.00;50.75;;;;;6.22;100.00;102669.47;4868101;29;45478;-81
2023/02/13 04:51:40;;;;;;;;;66.75;55.75;;;;;6.26;100.00;102684.72;4872051;29;45407;-81
2023/02/13 04:54:06;;;;;;;;;66.25;54.25;;;;;6.24;100.00;102674.84;4871962;29;45403;-81
2023/02/13 04:56:31;;;;;;;;;66.00;54.50;;;;;6.27;100.00;102677.69;4872206;29;45782;-82
2023/02/13 04:58:56;;;;;;;;;66.75;53.50;;;;;6.30;100.00;102686.75;4891040;29;45446;-82
2023/02/13 05:01:22;;;;;;;;;67.00;55.00;;;;;6.30;100.00;102681.44;4891110;29;45467;-81
2023/02/13 05:03:47;;;;;;;;;69.50;54.00;;;;;6.31;100.00;102677.06;4890985;29;45254;-82
2023/02/13 05:06:13;;;;;;;;;65.75;49.75;;;;;6.38;100.00;102677.56;4890025;29;45522;-82
2023/02/13 05:08:39;;;;;;;;;66.50;54.50;;;;;6.40;100.00;102682.91;4888100;29;45444;-82
2023/02/13 05:11:04;;;;;;;;;62.75;52.50;;;;;6.39;100.00;102681.09;4870745;29;45565;-82
2023/02/13 05:13:30;;;;;;;;;62.25;51.50;;;;;6.40;100.00;102677.63;4889995;29;45836;-81
2023/02/13 05:15:56;;;;;;;;;61.00;50.25;;;;;6.40;100.00;102657.41;4891161;29;44913;-82
2023/02/13 05:18:22;;;;;;;;;63.75;52.00;;;;;6.43;100.00;102667.25;4890989;29;45378;-82
2023/02/13 05:23:21;;;;;;;;;68.50;55.50;;;;;6.52;100.00;102673.09;4891848;28;44813;-82
2023/02/13 05:23:33;;;;;;;;;61.75;51.50;;;;;6.50;100.00;102665.91;4891550;29;45717;-80
2023/02/13 05:25:58;;;;;;;;;64.75;52.75;;;;;6.56;100.00;102675.13;4873106;29;45590;-81
2023/02/13 05:31:08;;;;;;;;;63.50;53.00;;;;;6.48;100.00;102657.88;4889178;29;45481;-81
2023/02/13 05:33:33;;;;;;;;;61.75;51.25;;;;;6.57;100.00;102682.22;4873402;29;45878;-81
2023/02/13 05:35:58;;;;;;;;;60.75;49.25;;;;;6.52;100.00;102678.38;4890606;29;45346;-81
2023/02/13 05:41:47;;;;;;;;;64.50;52.50;;;;;6.43;100.00;102683.13;4889007;29;45279;-82
2023/02/13 05:44:13;;;;;;;;;65.75;52.00;;;;;6.31;100.00;102685.00;4857525;29;45502;-82
2023/02/13 05:46:41;;;;;;;;;69.00;55.00;;;;;6.26;100.00;102667.94;4891580;29;45452;-81
2023/02/13 05:49:08;;;;;;;;;70.50;56.00;;;;;6.24;100.00;102677.50;4888769;29;45484;-81
2023/02/13 05:51:33;;;;;;;;;66.25;55.50;;;;;6.15;100.00;102681.38;4872203;29;45339;-81
2023/02/13 05:53:59;;;;;;;;;67.75;55.25;;;;;6.11;100.00;102674.06;4887610;29;45479;-81
2023/02/13 05:56:24;;;;;;;;;64.00;51.50;;;;;6.17;100.00;102685.03;4872178;29;45875;-81
2023/02/13 05:58:51;;;;;;;;;70.75;55.50;;;;;6.14;100.00;102674.28;4871272;29;47484;-82
2023/02/13 06:01:24;;;;;;;;;65.00;53.00;;;;;6.19;100.00;102683.41;4869191;29;45466;-81
2023/02/13 06:04:11;;;;;;;;;71.00;55.00;;;;;6.21;100.00;102675.56;4877840;29;45322;-81
2023/02/13 06:06:36;;;;;;;;;57.75;46.50;;;;;6.14;100.00;102678.63;4868090;29;45536;-81
2023/02/13 06:09:02;;;;;;;;;65.00;52.50;;;;;6.15;100.00;102683.13;4852438;29;47388;-82
2023/02/13 06:11:28;;;;;;;;;67.00;55.50;;;;;6.08;100.00;102679.19;4870568;29;46015;-82
2023/02/13 06:13:53;;;;;;;;;62.50;52.25;;;;;6.08;100.00;102678.25;4873137;29;45629;-82
2023/02/13 06:16:19;;;;;;;;;65.75;52.75;;;;;6.05;100.00;102683.34;4855966;29;45335;-82
2023/02/13 06:18:44;;;;;;;;;68.75;55.00;;;;;5.92;100.00;102676.34;4854438;29;48191;-81
2023/02/13 06:21:11;;;;;;;;;66.50;54.50;;;;;5.89;100.00;102670.84;4871750;29;45534;-83
2023/02/13 06:23:36;;;;;;;;;61.75;51.75;;;;;5.93;100.00;102686.09;4854977;29;44894;-83
2023/02/13 06:26:07;;;;;;;;;64.25;49.75;;;;;6.00;100.00;102685.72;4869852;29;45375;-83
2023/02/13 06:28:33;;;;;;;;;58.75;48.75;;;;;5.90;100.00;102681.53;4870971;29;45492;-81
2023/02/13 06:30:59;;;;;;;;;71.00;56.00;;;;;5.86;100.00;102681.19;4853317;29;45563;-80
2023/02/13 06:33:25;;;;;;;;;62.25;51.75;;;;;5.86;100.00;102686.47;4869831;29;45506;-80
2023/02/13 06:35:51;;;;;;;;;63.50;52.00;;;;;5.87;100.00;102694.50;4855671;29;45455;-81
2023/02/13 06:38:17;;;;;;;;;59.50;50.00;;;;;5.86;100.00;102697.03;4870020;29;46989;-83
2023/02/13 06:40:48;;;;;;;;;62.00;52.00;;;;;5.83;100.00;102684.56;4873191;29;45622;-81
2023/02/13 06:43:15;;;;;;;;;61.75;51.50;;;;;5.85;100.00;102695.25;4872450;29;45412;-82
2023/02/13 06:45:40;;;;;;;;;63.50;49.75;;;;;5.85;100.00;102690.88;4870778;29;45373;-81
2023/02/13 06:48:07;;;;;;;;;59.75;48.50;;;;;5.85;100.00;102698.78;4868777;29;45534;-81
2023/02/13 06:50:33;;;;;;;;;63.00;51.25;;;;;5.88;100.00;102700.69;4851819;29;45078;-82
2023/02/13 06:52:59;;;;;;;;;65.50;51.75;;;;;5.85;100.00;102708.44;4853206;29;45332;-83
2023/02/13 06:55:24;;;;;;;;;67.75;54.50;;;;;5.81;100.00;102707.31;4867520;29;45673;-82
2023/02/13 06:57:50;;;;;;;;;62.75;51.75;;;;;5.80;100.00;102706.41;4854908;29;46974;-80
2023/02/13 07:00:17;;;;;;;;;65.00;54.75;;;;;5.87;100.00;102715.63;4872341;29;44872;-80
2023/02/13 07:02:44;;;;;;;;;68.25;54.25;;;;;5.86;100.00;102710.25;4852213;29;45470;-80
2023/02/13 07:05:10;;;;;;;;;65.00;51.00;;;;;5.84;100.00;102719.81;4871548;29;45251;-81
2023/02/13 07:07:39;;;;;;;;;58.50;48.00;;;;;5.81;100.00;102708.22;4854122;29;45764;-82
2023/02/13 07:10:07;;;;;;;;;64.75;50.75;;;;;5.83;100.00;102713.63;4870174;29;45490;-81
2023/02/13 07:12:35;;;;;;;;;69.00;54.25;;;;;5.87;100.00;102720.00;4870762;29;45515;-82
2023/02/13 07:15:03;;;;;;;;;67.00;53.75;;;;;5.88;100.00;102716.53;4853265;29;44886;-81
2023/02/13 07:17:30;;;;;;;;;59.25;50.00;;;;;5.84;100.00;102719.81;4872358;29;45159;-82
2023/02/13 07:19:55;;;;;;;;;68.25;54.00;;;;;5.87;100.00;102726.19;4873066;29;45921;-81
2023/02/13 07:22:21;;;;;;;;;62.25;50.00;;;;;5.86;100.00;102719.13;4872739;29;45444;-82
2023/02/13 07:24:46;;;;;;;;;70.25;52.75;;;;;5.87;100.00;102723.56;4855505;29;45276;-82
2023/02/13 07:27:11;;;;;;;;;63.75;52.50;;;;;5.84;100.00;102715.47;4855083;29;45427;-81
2023/02/13 07:29:37;;;;;;;;;64.50;50.00;;;;;5.93;100.00;102741.53;4839798;29;45595;-83
2023/02/13 07:32:02;;;;;;;;;64.00;52.50;;;;;5.92;100.00;102740.63;4848593;29;45400;-82
2023/02/13 07:34:28;;;;;;;;;66.50;55.25;;;;;5.95;100.00;102740.84;4836950;29;45444;-82
2023/02/13 07:36:53;;;;;;;;;74.75;55.00;;;;;5.98;100.00;102741.06;4849675;29;47827;-83
2023/02/13 07:42:42;;;;;;;;;69.50;56.00;;;;;6.03;100.00;102725.50;4837626;29;45246;-82
2023/02/13 07:45:08;;;;;;;;;69.75;55.75;;;;;6.01;100.00;102729.78;4839289;29;45472;-82
2023/02/13 07:47:34;;;;;;;;;66.50;51.25;;;;;6.08;100.00;102739.94;4856332;29;47230;-81
2023/02/13 07:50:00;;;;;;;;;64.25;52.75;;;;;6.14;100.00;102736.75;4859755;29;45424;-81
2023/02/13 07:52:26;;;;;;;;;65.25;55.75;;;;;6.11;100.00;102732.19;4860651;29;44838;-83
2023/02/13 07:54:54;;;;;;;;;65.50;53.75;;;;;6.21;100.00;102733.69;4858167;29;45505;-82
2023/02/13 07:57:19;;;;;;;;;72.50;57.00;;;;;6.20;100.00;102731.84;4841442;29;45533;-83
2023/02/13 07:59:44;;;;;;;;;72.00;56.25;;;;;6.19;100.00;102725.66;4838139;29;45401;-82
2023/02/13 08:02:12;;;;;;;;;75.00;60.50;;;;;6.31;100.00;102736.13;4859701;29;45001;-82
2023/02/13 08:04:38;;;;;;;;;73.50;58.25;;;;;6.30;100.00;102733.38;4865113;29;44827;-82
2023/02/13 08:07:03;;;;;;;;;73.75;57.25;;;;;6.38;100.00;102735.69;4859961;29;47796;-82
2023/02/13 08:12:14;;;;;;;;;70.75;56.75;;;;;6.48;100.00;102729.22;4878970;29;45462;-83
2023/02/13 08:14:40;;;;;;;;;68.75;56.00;;;;;6.68;100.00;102740.16;4859119;29;45459;-82
2023/02/13 08:20:28;;;;;;;;;66.25;53.25;;;;;6.95;100.00;102731.28;4859289;29;45766;-82
2023/02/13 08:22:53;;;;;;;;;71.25;53.25;;;;;6.99;100.00;102730.63;4841333;29;44861;-82
2023/02/13 08:25:19;;;;;;;;;68.00;55.50;;;;;7.10;100.00;102725.06;4854283;29;45844;-83
2023/02/13 08:27:45;;;;;;;;;66.00;53.75;;;;;7.19;100.00;102728.25;4881349;29;45719;-83
2023/02/13 08:30:11;;;;;;;;;70.00;55.75;;;;;7.26;100.00;102724.28;4861172;29;45254;-83
2023/02/13 08:37:43;;;;;;;;;65.75;53.50;;;;;7.54;100.00;102738.31;4859118;29;45356;-82
2023/02/13 08:40:15;;;;;;;;;69.00;56.00;;;;;7.57;100.00;102732.25;4847683;29;48082;-82
2023/02/13 08:42:41;;;;;;;;;69.75;56.50;;;;;7.50;100.00;102723.06;4858630;29;46445;-80
2023/02/13 08:45:09;;;;;;;;;69.50;54.50;;;;;7.59;100.00;102731.56;4855567;29;44963;-82
2023/02/13 08:47:40;;;;;;;;;66.25;55.25;;;;;7.66;100.00;102740.75;4858594;29;45380;-82
2023/02/13 08:50:06;;;;;;;;;70.00;57.00;;;;;7.76;100.00;102743.09;4859424;29;46901;-83
2023/02/13 08:52:31;;;;;;;;;70.00;56.50;;;;;7.75;100.00;102732.41;4863940;29;45866;-84
2023/02/13 08:54:57;;;;;;;;;63.25;52.00;;;;;7.84;100.00;102742.63;4844594;29;45475;-83
2023/02/13 08:57:26;;;;;;;;;70.25;54.25;;;;;7.94;100.00;102739.69;4869354;29;45020;-82
2023/02/13 09:00:44;;;;;;;;;66.25;54.00;;;;;8.02;100.00;102743.69;4858468;29;47012;-82
2023/02/13 09:03:10;;;;;;;;;67.75;54.75;;;;;7.99;100.00;102740.84;4842568;29;45517;-81
2023/02/13 09:05:36;;;;;;;;;73.00;55.50;;;;;7.99;100.00;102730.25;4859353;29;45352;-82
2023/02/13 09:08:02;;;;;;;;;60.50;51.50;;;;;8.12;100.00;102743.38;4868564;29;45315;-83
2023/02/13 09:10:30;;;;;;;;;68.75;55.75;;;;;8.17;100.00;102739.25;4866327;29;44989;-82
2023/02/13 09:12:56;;;;;;;;;68.50;54.00;;;;;8.19;100.00;102745.53;4861165;29;45348;-82
2023/02/13 09:15:21;;;;;;;;;75.00;58.25;;;;;8.21;100.00;102742.97;4863459;29;45336;-82
2023/02/13 09:17:47;;;;;;;;;69.75;56.00;;;;;8.24;100.00;102739.56;4866479;29;45073;-82
2023/02/13 09:20:13;;;;;;;;;74.25;58.50;;;;;8.33;100.00;102745.41;4861380;29;45800;-83
2023/02/13 09:22:40;;;;;;;;;70.50;55.50;;;;;8.39;100.00;102745.75;4866626;29;45476;-82
2023/02/13 09:25:07;;;;;;;;;72.50;58.00;;;;;8.40;100.00;102744.91;4844907;29;45499;-81
2023/02/13 09:27:33;;;;;;;;;66.75;54.25;;;;;8.44;100.00;102744.28;4857792;29;45522;-82
2023/02/13 09:29:59;;;;;;;;;67.50;54.00;;;;;8.47;100.00;102743.56;4852570;29;46909;-82
2023/02/13 09:32:25;;;;;;;;;70.50;57.00;;;;;8.53;100.00;102743.88;4870323;29;45345;-82
2023/02/13 09:34:50;;;;;;;;;69.00;54.00;;;;;8.55;100.00;102728.97;4874707;29;45271;-82
2023/02/13 09:37:21;;;;;;;;;76.75;59.25;;;;;8.66;100.00;102741.06;4860466;29;45468;-82
2023/02/13 09:39:47;;;;;;;;;70.25;55.75;;;;;8.68;100.00;102730.53;4856685;29;48090;-82
2023/02/13 09:42:35;;;;;;;;;76.75;60.50;;;;;8.89;100.00;102738.75;4869059;29;44741;-81
2023/02/13 09:45:44;;;;;;;;;73.00;56.50;;;;;8.99;100.00;102741.06;4846670;29;45374;-82
2023/02/13 09:48:24;;;;;;;;;72.75;56.25;;;;;9.01;100.00;102740.28;4847999;29;44860;-82
2023/02/13 09:50:50;;;;;;;;;72.75;56.75;;;;;9.01;100.00;102732.34;4857653;29;45725;-82
2023/02/13 09:53:21;;;;;;;;;65.25;53.00;;;;;9.24;100.00;102737.91;4853126;29;45600;-82
2023/02/13 09:56:06;;;;;;;;;66.50;53.50;;;;;9.31;100.00;102731.16;4868745;29;46520;-82
2023/02/13 10:01:59;;;;;;;;;64.25;52.00;;;;;9.36;100.00;102737.66;4860982;29;45490;-81
2023/02/13 10:05:17;;;;;;;;;66.25;55.00;;;;;9.16;100.00;102694.13;4851196;29;45744;-80
2023/02/13 10:08:23;;;;;;;;;64.00;50.75;;;;;9.17;100.00;102709.22;4860303;29;44890;-79
2023/02/13 10:11:19;;;;;;;;;65.75;53.25;;;;;9.44;100.00;102741.59;4863066;29;45792;-81
2023/02/13 10:14:18;;;;;;;;;61.50;50.00;;;;;9.50;100.00;102741.00;4860509;29;46979;-82
2023/02/13 10:16:50;;;;;;;;;65.00;54.50;;;;;9.55;100.00;102735.09;4850280;29;44905;-81
2023/02/13 10:19:50;;;;;;;;;62.00;51.00;;;;;9.61;100.00;102740.72;4862495;29;45994;-82
2023/02/13 10:22:31;;;;;;;;;60.00;48.25;;;;;9.54;100.00;102721.72;4857442;29;45516;-82
2023/02/13 10:25:21;;;;;;;;;65.25;52.00;;;;;9.60;100.00;102720.28;4855550;29;46320;-83
2023/02/13 10:28:02;;;;;;;;;63.75;49.00;;;;;9.68;100.00;102741.03;4857825;29;46218;-82
2023/02/13 10:37:22;;;;;;;;;61.25;48.00;;;;;9.61;100.00;102702.59;4859656;29;45428;-82
2023/02/13 10:39:57;;;;;;;;;63.75;49.50;;;;;9.76;100.00;102737.00;4855658;29;45568;-82
2023/02/13 10:43:07;;;;;;;;;61.00;49.50;;;;;9.87;100.00;102729.53;4875108;29;44886;-82
2023/02/13 10:46:02;;;;;;;;;61.75;49.50;;;;;9.95;100.00;102738.78;4856473;29;45466;-83
2023/02/13 10:48:56;;;;;;;;;62.00;51.25;;;;;9.99;100.00;102733.69;4839896;29;48332;-83
2023/02/13 10:51:54;;;;;;;;;60.75;49.00;;;;;9.86;100.00;102703.81;4871218;29;44842;-82
2023/02/13 10:54:25;;;;;;;;;60.75;48.25;;;;;10.00;100.00;102729.31;4842873;29;45496;-81
2023/02/13 10:57:18;;;;;;;;;62.75;52.50;;;;;9.88;100.00;102694.16;4855879;29;45319;-82
2023/02/13 11:00:13;;;;;;;;;60.50;49.75;;;;;10.16;100.00;102722.94;4872113;29;45646;-82
2023/02/13 11:02:40;;;;;;;;;63.50;50.25;;;;;10.02;100.00;102701.06;4857143;29;45989;-82
2023/02/13 11:05:25;;;;;;;;;62.50;51.25;;;;;10.02;100.00;102671.81;4857060;29;45616;-84
2023/02/13 11:08:16;;;;;;;;;62.00;50.75;;;;;10.35;100.00;102714.16;4840474;29;45549;-82
2023/02/13 11:10:43;;;;;;;;;64.50;52.00;;;;;10.30;100.00;102698.00;4871013;29;46875;-83
2023/02/13 11:13:23;;;;;;;;;65.00;52.25;;;;;10.51;100.00;102708.69;4873039;29;45489;-82
2023/02/13 11:16:09;;;;;;;;;62.75;49.50;;;;;10.54;100.00;102697.28;4847566;29;45451;-82
2023/02/13 11:18:44;;;;;;;;;64.25;50.00;;;;;10.58;100.00;102696.56;4855011;29;44908;-83
2023/02/13 11:21:33;;;;;;;;;63.00;51.25;;;;;10.55;100.00;102677.81;4852634;29;46884;-81
2023/02/13 11:24:43;;;;;;;;;65.00;51.25;;;;;10.70;100.00;102694.47;4867836;28;45789;-83
2023/02/13 11:27:13;;;;;;;;;64.50;51.25;;;;;10.41;100.00;102627.56;4849389;29;45342;-81
2023/02/13 11:30:28;;;;;;;;;59.33;48.33;;;;;10.82;100.00;102679.03;4850233;29;45571;-82
2023/02/13 11:33:01;;;;;;;;;60.00;49.00;;;;;10.58;100.00;102630.06;4798785;29;46988;-83
2023/02/13 11:35:47;;;;;;;;;64.50;50.00;;;;;10.67;100.00;102624.25;4803528;29;45322;-81
2023/02/13 11:41:44;;;;;;;;;64.67;51.67;;;;;10.96;100.00;102655.69;4820463;29;45486;-81
2023/02/13 11:44:52;;;;;;;;;61.00;49.00;;;;;11.18;100.00;102665.50;4820753;29;47239;-82
2023/02/13 11:47:51;;;;;;;;;60.67;47.67;;;;;11.25;100.00;102669.34;4815320;29;44894;-83
2023/02/13 11:50:45;;;;;;;;;54.67;46.67;;;;;11.21;100.00;102651.44;4813036;29;45616;-82
2023/02/13 12:02:52;;;;;;;;;55.33;46.33;;;;;11.01;100.00;102624.84;4804466;29;44844;-84
2023/02/13 12:06:19;;;;;;;;;60.00;48.00;;;;;11.25;100.00;102649.78;4789090;29;44896;-83
2023/02/13 12:09:44;;;;;;;;;59.00;48.00;;;;;11.31;100.00;102655.38;4800585;29;45190;-84
2023/02/13 12:12:18;;;;;;;;;60.67;50.00;;;;;11.39;100.00;102641.53;4746277;29;45507;-76
2023/02/13 12:14:45;;;;;;;;;58.00;48.67;;;;;11.43;100.00;102641.66;4738016;29;45618;-77
2023/02/13 12:17:21;;;;;;;;;55.00;46.25;;;;;11.54;100.00;102640.34;4739532;29;44995;-79
2023/02/13 12:19:50;;;;;;;;;55.00;45.50;;;;;11.55;100.00;102637.75;4708345;30;47798;-76
2023/02/13 12:22:25;;;;;;;;;61.50;49.00;;;;;11.59;100.00;102633.44;4694228;30;45452;-76
2023/02/13 12:25:11;;;;;;;;;59.00;48.25;;;;;11.67;100.00;102637.31;4698990;30;45399;-77
2023/02/13 12:28:02;;;;;;;;;62.00;48.00;;;;;11.75;100.00;102634.94;4695771;30;45377;-76
2023/02/13 12:30:43;;;;;;;;;57.50;46.00;;;;;11.72;100.00;102630.41;4703479;30;45498;-77
2023/02/13 12:33:41;;;;;;;;;65.75;52.00;;;;;11.66;100.00;102622.19;4694939;30;45512;-76
2023/02/13 12:36:23;;;;;;;;;64.00;51.00;;;;;11.74;100.00;102620.72;4720806;29;45399;-77
2023/02/13 12:39:08;;;;;;;;;62.75;51.25;;;;;11.76;100.00;102627.03;4726429;29;45857;-78
2023/02/13 12:41:52;;;;;;;;;59.25;50.00;;;;;11.81;100.00;102630.78;4778059;29;46698;-79
2023/02/13 12:44:42;;;;;;;;;66.00;51.50;;;;;11.78;100.00;102612.00;4749676;29;45505;-79
2023/02/13 12:47:15;;;;;;;;;59.50;47.00;;;;;11.81;100.00;102614.78;4771215;29;45406;-78
2023/02/13 12:50:13;;;;;;;;;64.00;51.00;;;;;11.87;100.00;102607.88;4824568;29;45481;-77
2023/02/13 12:52:56;;;;;;;;;64.50;49.25;;;;;11.95;100.00;102611.78;4847835;29;46888;-76
2023/02/13 12:55:46;;;;;;;;;65.25;52.25;;;;;12.01;100.00;102601.34;4839720;29;45525;-83
2023/02/13 12:58:42;;;;;;;;;56.75;47.50;;;;;12.02;100.00;102603.16;4850822;29;45413;-82
2023/02/13 13:01:42;;;;;;;;;57.75;46.50;;;;;12.11;100.00;102607.94;4857210;29;45491;-80
2023/02/13 13:04:35;;;;;;;;;58.25;48.50;;;;;12.13;100.00;102599.13;4840321;29;45656;-80
2023/02/13 13:07:21;;;;;;;;;60.00;46.25;;;;;12.12;100.00;102600.00;4841039;29;45498;-81
2023/02/13 13:10:05;;;;;;;;;64.75;50.00;;;;;12.15;100.00;102599.19;4844038;29;45550;-84